createdAt,value
2017-10-12T00:00:04.543Z,99.90
2017-10-12T00:02:34.025Z,99.90
2017-10-12T00:05:03.722Z,99.90
2017-10-12T00:07:33.476Z,99.90
2017-10-12T00:10:03.727Z,99.90
2017-10-12T00:12:33.445Z,99.90
2017-10-12T00:15:02.927Z,99.90
2017-10-12T00:17:33.392Z,99.90
2017-10-12T00:20:02.895Z,99.90
2017-10-12T00:22:32.170Z,99.90
2017-10-12T00:25:01.885Z,99.90
2017-10-12T00:27:31.562Z,99.90
2017-10-12T00:30:01.045Z,99.90
2017-10-12T00:32:30.510Z,99.90
2017-10-12T00:35:00.186Z,99.90
2017-10-12T00:37:29.889Z,99.90
2017-10-12T00:39:59.360Z,99.90
2017-10-12T00:42:29.046Z,99.90
2017-10-12T00:44:58.720Z,99.90
2017-10-12T00:47:28.066Z,99.90
2017-10-12T00:49:57.760Z,99.90
2017-10-12T00:52:27.845Z,99.90
2017-10-12T00:54:57.217Z,99.90
2017-10-12T00:57:26.895Z,99.90
2017-10-12T00:59:56.601Z,99.90
2017-10-12T01:02:25.772Z,99.90
2017-10-12T01:04:55.841Z,99.90
2017-10-12T01:07:25.164Z,99.90
2017-10-12T01:09:54.646Z,99.90
2017-10-12T01:12:23.635Z,99.90
2017-10-12T01:14:52.612Z,99.90
2017-10-12T01:17:22.290Z,99.90
2017-10-12T01:19:51.138Z,99.90
2017-10-12T01:22:19.730Z,99.90
2017-10-12T01:24:48.523Z,99.90
2017-10-12T01:27:17.396Z,99.90
2017-10-12T01:29:46.626Z,99.90
2017-10-12T01:32:15.604Z,99.90
2017-10-12T01:34:44.747Z,99.90
2017-10-12T01:37:14.539Z,99.90
2017-10-12T01:39:43.659Z,99.90
2017-10-12T01:42:13.204Z,99.90
2017-10-12T01:44:42.219Z,99.90
2017-10-12T01:47:11.010Z,99.90
2017-10-12T01:49:40.141Z,99.90
2017-10-12T01:52:10.374Z,99.90
2017-10-12T01:54:40.827Z,99.90
2017-10-12T01:57:10.320Z,99.90
2017-10-12T01:59:40.030Z,99.90
2017-10-12T02:02:09.684Z,99.90
2017-10-12T02:04:38.810Z,99.90
2017-10-12T02:07:09.268Z,99.90
2017-10-12T02:09:38.941Z,99.90
2017-10-12T02:12:08.306Z,99.90
2017-10-12T02:14:37.801Z,99.90
2017-10-12T02:17:06.935Z,99.90
2017-10-12T02:19:36.453Z,99.90
2017-10-12T02:22:06.692Z,99.90
2017-10-12T02:24:36.181Z,99.90
2017-10-12T02:27:06.096Z,99.90
2017-10-12T02:29:35.571Z,99.90
2017-10-12T02:32:05.131Z,99.90
2017-10-12T02:34:35.382Z,99.90
2017-10-12T02:37:04.152Z,99.90
2017-10-12T02:39:33.951Z,99.90
2017-10-12T02:42:04.201Z,99.90
2017-10-12T02:44:33.727Z,99.90
2017-10-12T02:47:03.203Z,99.90
2017-10-12T02:49:32.341Z,99.90
2017-10-12T02:52:01.816Z,99.90
2017-10-12T02:54:32.350Z,99.90
2017-10-12T02:57:01.135Z,99.90
2017-10-12T02:59:29.918Z,99.90
2017-10-12T03:01:59.427Z,99.90
2017-10-12T03:04:28.890Z,99.90
2017-10-12T03:06:58.446Z,99.90
2017-10-12T03:09:27.936Z,99.90
2017-10-12T03:11:57.062Z,99.90
2017-10-12T03:14:26.528Z,99.90
2017-10-12T03:16:55.671Z,99.90
2017-10-12T03:19:25.138Z,99.90
2017-10-12T03:21:54.252Z,99.90
2017-10-12T03:24:23.769Z,99.90
2017-10-12T03:26:52.906Z,99.90
2017-10-12T03:29:23.231Z,99.90
2017-10-12T03:31:53.463Z,99.90
2017-10-12T03:34:22.960Z,99.90
2017-10-12T03:36:53.043Z,99.90
2017-10-12T03:39:22.517Z,99.90
2017-10-12T03:41:51.638Z,99.90
2017-10-12T03:44:20.961Z,99.90
2017-10-12T03:46:50.093Z,99.90
2017-10-12T03:49:20.431Z,99.90
2017-10-12T03:51:49.735Z,99.90
2017-10-12T03:54:19.015Z,99.90
2017-10-12T03:56:49.303Z,99.90
2017-10-12T03:59:18.619Z,99.90
2017-10-12T04:01:48.677Z,99.90
2017-10-12T04:04:18.000Z,99.90
2017-10-12T04:06:47.335Z,99.90
2017-10-12T04:09:16.792Z,99.90
2017-10-12T04:11:46.256Z,99.90
2017-10-12T04:14:16.509Z,99.90
2017-10-12T04:16:45.974Z,99.90
2017-10-12T04:19:15.496Z,99.90
2017-10-12T04:21:45.714Z,99.90
2017-10-12T04:24:15.985Z,99.90
2017-10-12T04:26:45.262Z,99.90
2017-10-12T04:29:14.759Z,99.90
2017-10-12T04:31:45.061Z,99.90
2017-10-12T04:34:15.299Z,99.90
2017-10-12T04:36:45.570Z,99.90
2017-10-12T04:39:15.061Z,99.90
2017-10-12T04:41:44.522Z,99.90
2017-10-12T04:44:14.805Z,99.90
2017-10-12T04:46:44.304Z,99.90
2017-10-12T04:49:13.774Z,99.90
2017-10-12T04:51:43.242Z,99.90
2017-10-12T04:54:12.541Z,99.90
2017-10-12T04:56:41.495Z,99.90
2017-10-12T04:59:10.811Z,99.90
2017-10-12T05:01:40.085Z,99.90
2017-10-12T05:04:09.564Z,99.90
2017-10-12T05:06:39.820Z,99.90
2017-10-12T05:09:09.344Z,99.90
2017-10-12T05:11:38.861Z,99.90
2017-10-12T05:14:08.313Z,99.90
2017-10-12T05:16:38.580Z,99.90
2017-10-12T05:19:08.087Z,99.90
2017-10-12T05:21:37.570Z,99.90
2017-10-12T05:24:07.046Z,99.90
2017-10-12T05:26:37.321Z,99.90
2017-10-12T05:29:06.795Z,99.90
2017-10-12T05:31:36.247Z,99.90
2017-10-12T05:34:05.786Z,99.90
2017-10-12T05:36:36.026Z,99.90
2017-10-12T05:39:04.858Z,99.90
2017-10-12T05:41:33.974Z,99.90
2017-10-12T05:44:04.261Z,99.90
2017-10-12T05:46:33.743Z,99.90
2017-10-12T05:49:03.044Z,99.90
2017-10-12T05:51:32.530Z,99.90
2017-10-12T05:54:02.806Z,99.90
2017-10-12T05:56:32.310Z,99.90
2017-10-12T05:59:01.803Z,99.90
2017-10-12T06:01:31.251Z,99.90
2017-10-12T06:04:00.738Z,99.90
2017-10-12T06:06:30.203Z,99.90
2017-10-12T06:08:59.739Z,99.90
2017-10-12T06:11:29.247Z,99.90
2017-10-12T06:13:58.794Z,99.90
2017-10-12T06:16:29.051Z,99.90
2017-10-12T06:18:58.534Z,99.90
2017-10-12T06:21:28.050Z,99.90
2017-10-12T06:23:57.541Z,99.90
2017-10-12T06:26:27.790Z,99.90
2017-10-12T06:28:57.305Z,99.90
2017-10-12T06:31:26.942Z,99.90
2017-10-12T06:33:56.459Z,99.90
2017-10-12T06:36:25.241Z,99.90
2017-10-12T06:38:54.712Z,99.90
2017-10-12T06:41:24.082Z,99.90
2017-10-12T06:43:54.318Z,99.90
2017-10-12T06:46:23.806Z,99.90
2017-10-12T06:48:53.723Z,99.90
2017-10-12T06:51:23.212Z,99.90
2017-10-12T06:53:52.343Z,99.90
2017-10-12T06:56:21.853Z,99.90
2017-10-12T06:58:51.329Z,99.90
2017-10-12T07:01:21.623Z,99.90
2017-10-12T07:03:51.147Z,99.90
2017-10-12T07:06:20.657Z,99.90
2017-10-12T07:08:50.131Z,99.90
2017-10-12T07:11:19.638Z,99.90
2017-10-12T07:13:50.011Z,99.90
2017-10-12T07:16:20.315Z,99.90
2017-10-12T07:18:49.790Z,99.90
2017-10-12T07:21:19.121Z,99.90
2017-10-12T07:23:49.374Z,99.90
2017-10-12T07:26:18.658Z,99.90
2017-10-12T07:28:48.767Z,99.90
2017-10-12T07:31:18.231Z,99.90
2017-10-12T07:33:47.692Z,99.90
2017-10-12T07:36:17.187Z,99.90
2017-10-12T07:38:47.444Z,99.90
2017-10-12T07:41:16.990Z,99.90
2017-10-12T07:43:46.158Z,99.90
2017-10-12T07:46:15.620Z,99.90
2017-10-12T07:48:45.911Z,99.90
2017-10-12T07:51:15.375Z,99.90
2017-10-12T07:53:44.859Z,99.90
2017-10-12T07:56:15.125Z,99.90
2017-10-12T07:58:44.399Z,99.90
2017-10-12T08:01:13.749Z,99.90
2017-10-12T08:03:43.252Z,99.90
2017-10-12T08:06:12.732Z,99.90
2017-10-12T08:08:42.244Z,99.90
2017-10-12T08:11:11.745Z,99.90
2017-10-12T08:13:41.223Z,99.90
2017-10-12T08:16:10.740Z,99.90
2017-10-12T08:18:39.988Z,99.90
2017-10-12T08:21:10.277Z,99.90
2017-10-12T08:23:39.487Z,99.90
2017-10-12T08:26:08.719Z,99.90
2017-10-12T08:28:37.974Z,99.90
2017-10-12T08:31:07.166Z,99.90
2017-10-12T08:33:36.420Z,99.90
2017-10-12T08:36:05.657Z,99.90
2017-10-12T08:38:34.977Z,99.90
2017-10-12T08:41:04.978Z,99.90
2017-10-12T08:43:34.236Z,99.90
2017-10-12T08:46:03.440Z,99.90
2017-10-12T08:48:32.663Z,99.90
2017-10-12T08:51:01.921Z,99.90
2017-10-12T08:53:31.924Z,99.90
2017-10-12T08:56:01.184Z,99.90
2017-10-12T08:58:31.243Z,99.90
2017-10-12T09:01:01.260Z,99.90
2017-10-12T09:03:31.234Z,99.90
2017-10-12T09:06:00.477Z,99.90
2017-10-12T09:08:30.466Z,99.90
2017-10-12T09:10:59.695Z,99.90
2017-10-12T09:13:29.667Z,99.90
2017-10-12T09:15:58.881Z,99.90
2017-10-12T09:18:28.731Z,99.90
2017-10-12T09:20:58.738Z,99.90
2017-10-12T09:23:28.695Z,99.90
2017-10-12T09:25:57.222Z,99.90
2017-10-12T09:28:25.511Z,99.90
2017-10-12T09:30:54.222Z,99.90
2017-10-12T09:33:24.100Z,99.90
2017-10-12T09:35:52.615Z,99.90
2017-10-12T09:38:22.092Z,99.90
2017-10-12T09:40:51.178Z,99.90
2017-10-12T09:43:19.682Z,99.90
2017-10-12T09:45:49.529Z,99.90
2017-10-12T09:48:18.593Z,99.90
2017-10-12T09:50:48.268Z,99.90
2017-10-12T09:53:17.044Z,99.90
2017-10-12T09:55:45.762Z,99.90
2017-10-12T09:58:14.974Z,99.90
2017-10-12T10:00:45.198Z,99.90
2017-10-12T10:03:14.866Z,99.90
2017-10-12T10:05:43.928Z,99.90
2017-10-12T10:08:14.182Z,99.90
2017-10-12T10:10:43.653Z,99.90
2017-10-12T10:13:13.344Z,99.90
2017-10-12T10:15:43.041Z,99.90
2017-10-12T10:18:12.752Z,99.90
2017-10-12T10:20:42.464Z,99.90
2017-10-12T10:23:11.987Z,99.90
2017-10-12T10:25:41.691Z,99.90
2017-10-12T10:28:11.685Z,99.90
2017-10-12T10:30:41.179Z,99.90
2017-10-12T10:33:10.687Z,99.90
2017-10-12T10:35:39.935Z,99.90
2017-10-12T10:38:10.453Z,99.90
2017-10-12T10:40:40.172Z,99.90
2017-10-12T10:43:10.328Z,99.90
2017-10-12T10:45:39.768Z,99.90
2017-10-12T10:48:09.231Z,99.90
2017-10-12T10:50:38.642Z,99.90
2017-10-12T10:53:07.866Z,99.90
2017-10-12T10:55:37.284Z,99.90
2017-10-12T10:58:06.674Z,99.90
2017-10-12T11:00:35.925Z,99.90
2017-10-12T11:03:04.945Z,99.90
2017-10-12T11:05:34.346Z,99.90
2017-10-12T11:08:03.778Z,99.90
2017-10-12T11:10:33.172Z,99.90
2017-10-12T11:13:02.592Z,99.90
2017-10-12T11:15:32.084Z,99.90
2017-10-12T11:18:01.594Z,99.90
2017-10-12T11:20:31.020Z,99.90
2017-10-12T11:23:01.051Z,99.90
2017-10-12T11:25:31.016Z,99.90
2017-10-12T11:28:00.267Z,99.90
2017-10-12T11:30:30.480Z,99.90
2017-10-12T11:33:00.684Z,99.90
2017-10-12T11:35:30.420Z,99.90
2017-10-12T11:38:00.443Z,99.90
2017-10-12T11:40:29.843Z,95.30
2017-10-12T11:42:59.303Z,91.20
2017-10-12T11:45:28.710Z,84.80
2017-10-12T11:47:58.112Z,84.50
2017-10-12T11:50:27.357Z,80.90
2017-10-12T11:52:56.905Z,72.20
2017-10-12T11:55:25.940Z,71.80
2017-10-12T11:57:56.118Z,65.80
2017-10-12T12:00:25.544Z,65.80
2017-10-12T12:02:55.010Z,63.30
2017-10-12T12:05:24.448Z,62.90
2017-10-12T12:07:54.446Z,57.00
2017-10-12T12:10:23.713Z,56.90
2017-10-12T12:12:53.178Z,56.20
2017-10-12T12:15:22.579Z,53.30
2017-10-12T12:17:52.025Z,54.20
2017-10-12T12:20:22.230Z,57.00
2017-10-12T12:22:51.450Z,56.90
2017-10-12T12:25:20.881Z,56.50
2017-10-12T12:27:50.282Z,54.90
2017-10-12T12:30:19.712Z,54.30
2017-10-12T12:32:49.162Z,52.60
2017-10-12T12:35:19.319Z,49.20
2017-10-12T12:37:48.791Z,49.20
2017-10-12T12:40:18.194Z,51.20
2017-10-12T12:42:47.623Z,50.60
2017-10-12T12:45:17.061Z,50.10
2017-10-12T12:47:46.522Z,50.80
2017-10-12T12:50:15.970Z,50.50
2017-10-12T12:52:45.196Z,52.40
2017-10-12T12:55:15.366Z,55.60
2017-10-12T12:57:44.791Z,55.70
2017-10-12T13:00:14.226Z,52.90
2017-10-12T13:02:44.228Z,52.10
2017-10-12T13:05:13.747Z,52.10
2017-10-12T13:07:43.974Z,54.20
2017-10-12T13:10:14.337Z,54.60
2017-10-12T13:12:43.747Z,54.50
2017-10-12T13:15:13.186Z,54.30
2017-10-12T13:17:42.615Z,53.20
2017-10-12T13:20:12.762Z,52.50
2017-10-12T13:22:42.231Z,52.50
2017-10-12T13:25:12.405Z,53.50
2017-10-12T13:27:41.856Z,53.30
2017-10-12T13:30:12.128Z,55.10
2017-10-12T13:32:41.551Z,55.10
2017-10-12T13:35:10.963Z,54.70
2017-10-12T13:37:40.387Z,54.70
2017-10-12T13:40:10.561Z,55.50
2017-10-12T13:42:39.987Z,55.00
2017-10-12T13:45:09.418Z,55.30
2017-10-12T13:47:40.420Z,56.20
2017-10-12T13:50:09.133Z,56.30
2017-10-12T13:52:38.455Z,55.20
2017-10-12T13:55:08.656Z,56.30
2017-10-12T13:57:38.862Z,55.10
2017-10-12T14:00:08.261Z,55.10
2017-10-12T14:02:37.143Z,54.70
2017-10-12T14:05:06.575Z,55.80
2017-10-12T14:07:36.431Z,56.20
2017-10-12T14:10:05.654Z,55.70
2017-10-12T14:12:34.862Z,54.80
2017-10-12T14:15:04.104Z,56.00
2017-10-12T14:17:34.295Z,59.00
2017-10-12T14:20:03.683Z,59.00
2017-10-12T14:22:33.099Z,60.40
2017-10-12T14:25:02.534Z,60.40
2017-10-12T14:27:32.708Z,58.50
2017-10-12T14:30:02.165Z,58.50
2017-10-12T14:32:32.352Z,60.80
2017-10-12T14:35:01.761Z,60.70
2017-10-12T14:37:31.173Z,59.30
2017-10-12T14:40:01.416Z,57.00
2017-10-12T14:42:31.591Z,57.20
2017-10-12T14:45:01.234Z,57.20
2017-10-12T14:47:31.227Z,60.00
2017-10-12T14:50:00.632Z,60.00
2017-10-12T14:52:30.041Z,62.20
2017-10-12T14:54:59.462Z,63.30
2017-10-12T14:57:29.668Z,61.70
2017-10-12T14:59:59.836Z,60.70
2017-10-12T15:02:29.079Z,60.70
2017-10-12T15:04:58.314Z,60.60
2017-10-12T15:07:27.555Z,63.10
2017-10-12T15:09:57.027Z,64.40
2017-10-12T15:12:26.410Z,65.00
2017-10-12T15:14:56.643Z,68.30
2017-10-12T15:17:26.830Z,71.60
2017-10-12T15:19:56.279Z,71.60
2017-10-12T15:22:25.717Z,72.70
2017-10-12T15:24:55.175Z,72.40
2017-10-12T15:27:24.835Z,73.70
2017-10-12T15:29:54.046Z,74.50
2017-10-12T15:32:23.491Z,75.40
2017-10-12T15:34:52.951Z,77.70
2017-10-12T15:37:22.394Z,77.30
2017-10-12T15:39:52.552Z,80.20
2017-10-12T15:42:21.972Z,80.20
2017-10-12T15:44:51.384Z,82.80
2017-10-12T15:47:20.655Z,82.70
2017-10-12T15:49:50.601Z,83.10
2017-10-12T15:52:20.027Z,85.30
2017-10-12T15:54:49.776Z,86.20
2017-10-12T15:57:20.233Z,88.10
2017-10-12T15:59:49.934Z,88.10
2017-10-12T16:02:19.608Z,88.00
2017-10-12T16:04:50.066Z,89.80
2017-10-12T16:07:19.798Z,89.90
2017-10-12T16:09:49.483Z,90.50
2017-10-12T16:12:19.990Z,92.20
2017-10-12T16:14:49.654Z,92.20
2017-10-12T16:19:49.082Z,94.70
2017-10-12T16:22:18.755Z,94.80
2017-10-12T16:24:49.224Z,97.10
2017-10-12T16:27:18.910Z,97.00
2017-10-12T16:29:48.601Z,97.80
2017-10-12T16:32:19.088Z,97.60
2017-10-12T16:34:48.574Z,97.50
2017-10-12T16:37:18.321Z,97.50
2017-10-12T16:39:47.800Z,96.60
2017-10-12T16:42:17.492Z,96.40
2017-10-12T16:44:47.011Z,95.20
2017-10-12T16:47:16.764Z,95.10
2017-10-12T16:49:46.475Z,93.80
2017-10-12T16:52:16.182Z,93.70
2017-10-12T16:54:45.890Z,93.90
2017-10-12T16:57:15.585Z,92.90
2017-10-12T16:59:45.319Z,93.60
2017-10-12T17:02:15.570Z,93.10
2017-10-12T17:04:45.263Z,92.90
2017-10-12T17:07:15.698Z,93.70
2017-10-12T17:09:45.415Z,93.70
2017-10-12T17:12:14.906Z,93.60
2017-10-12T17:14:45.162Z,94.10
2017-10-12T17:17:14.857Z,94.00
2017-10-12T17:19:44.542Z,94.60
2017-10-12T17:22:14.313Z,95.30
2017-10-12T17:24:43.998Z,96.20
2017-10-12T17:27:13.951Z,95.80
2017-10-12T17:29:43.635Z,96.10
2017-10-12T17:32:13.321Z,97.20
2017-10-12T17:34:43.001Z,97.30
2017-10-12T17:37:12.699Z,97.70
2017-10-12T17:39:42.367Z,98.10
2017-10-12T17:42:12.074Z,98.90
2017-10-12T17:44:41.747Z,99.60
2017-10-12T17:47:12.219Z,99.90
2017-10-12T17:49:41.703Z,99.90
2017-10-12T17:52:11.212Z,99.90
2017-10-12T17:54:40.699Z,99.90
2017-10-12T17:57:10.963Z,99.90
2017-10-12T17:59:40.465Z,99.90
2017-10-12T18:02:10.129Z,99.90
2017-10-12T18:07:10.410Z,99.90
2017-10-12T18:09:40.098Z,99.90
2017-10-12T18:12:25.493Z,99.90
2017-10-12T18:14:40.230Z,99.90
2017-10-12T18:17:10.685Z,99.90
2017-10-12T18:19:40.370Z,99.90
2017-10-12T18:22:10.882Z,99.90
2017-10-12T18:24:41.337Z,99.90
2017-10-12T18:27:11.025Z,99.90
2017-10-12T18:29:41.511Z,99.90
2017-10-12T18:32:11.207Z,99.90
2017-10-12T18:37:11.393Z,99.90
2017-10-12T18:39:42.561Z,99.90
2017-10-12T18:42:13.019Z,99.90
2017-10-12T18:44:42.692Z,99.90
2017-10-12T18:47:12.953Z,99.90
2017-10-12T18:49:42.465Z,99.90
2017-10-12T18:52:12.119Z,99.90
2017-10-12T18:54:42.621Z,99.90
2017-10-12T18:57:12.333Z,99.90
2017-10-12T18:59:41.992Z,99.90
2017-10-12T19:02:11.712Z,99.90
2017-10-12T19:04:41.393Z,99.90
2017-10-12T19:07:11.852Z,99.90
2017-10-12T19:09:41.547Z,99.90
2017-10-12T19:12:11.372Z,99.90
2017-10-12T19:14:41.112Z,99.90
2017-10-12T19:17:11.011Z,99.90
2017-10-12T19:19:40.730Z,99.90
2017-10-12T19:22:10.237Z,99.90
2017-10-12T19:24:39.910Z,99.90
2017-10-12T19:27:09.423Z,99.90
2017-10-12T19:29:39.128Z,99.90
2017-10-12T19:32:08.367Z,99.90
2017-10-12T19:34:37.162Z,99.90
2017-10-12T19:37:06.622Z,99.90
2017-10-12T19:39:37.071Z,99.90
2017-10-12T19:42:06.783Z,99.90
2017-10-12T19:44:36.450Z,99.90
2017-10-12T19:47:06.948Z,99.90
2017-10-12T19:49:36.755Z,99.90
2017-10-12T19:52:06.463Z,99.90
2017-10-12T19:54:36.182Z,99.90
2017-10-12T19:57:05.892Z,99.90
2017-10-12T19:59:35.754Z,99.90
2017-10-12T20:02:06.175Z,99.90
2017-10-12T20:04:35.934Z,99.90
2017-10-12T20:07:05.659Z,99.90
2017-10-12T20:09:35.364Z,99.90
2017-10-12T20:12:05.065Z,99.90
2017-10-12T20:14:34.798Z,99.90
2017-10-12T20:17:04.511Z,99.90
2017-10-12T20:19:34.286Z,99.90
2017-10-12T20:22:03.967Z,99.90
2017-10-12T20:24:33.667Z,99.90
2017-10-12T20:27:04.135Z,99.90
2017-10-12T20:29:33.867Z,99.90
2017-10-12T20:32:03.364Z,99.90
2017-10-12T20:34:33.082Z,99.90
2017-10-12T20:37:04.294Z,99.90
2017-10-12T20:39:33.975Z,99.90
2017-10-12T20:42:19.363Z,99.90
2017-10-12T20:44:34.100Z,99.90
2017-10-12T20:47:04.704Z,99.90
2017-10-12T20:49:34.395Z,99.90
2017-10-12T20:54:33.934Z,99.90
2017-10-12T20:57:04.119Z,99.90
2017-10-12T20:59:33.795Z,99.90
2017-10-12T21:02:04.242Z,99.90
2017-10-12T21:04:34.491Z,99.90
2017-10-12T21:07:03.964Z,99.90
2017-10-12T21:09:34.455Z,99.90
2017-10-12T21:12:04.150Z,99.90
2017-10-12T21:14:33.847Z,99.90
2017-10-12T21:17:03.354Z,99.90
2017-10-12T21:19:33.042Z,99.90
2017-10-12T21:22:02.756Z,99.90
2017-10-12T21:24:32.455Z,99.90
2017-10-12T21:27:02.990Z,99.90
2017-10-12T21:29:33.436Z,99.90
2017-10-12T21:32:03.212Z,99.90
2017-10-12T21:34:33.662Z,99.90
2017-10-12T21:37:03.347Z,99.90
2017-10-12T21:39:33.790Z,99.90
2017-10-12T21:42:03.483Z,99.90
2017-10-12T21:44:38.071Z,99.90
2017-10-12T21:47:07.840Z,99.90
2017-10-12T21:49:37.633Z,99.90
2017-10-12T21:52:08.143Z,99.90
2017-10-12T21:54:37.938Z,99.90
2017-10-12T21:57:07.740Z,99.90
2017-10-12T21:59:37.329Z,99.90
2017-10-12T22:02:07.079Z,99.90
2017-10-12T22:04:36.628Z,99.90
2017-10-12T22:07:06.192Z,99.90
2017-10-12T22:09:35.939Z,99.90
2017-10-12T22:12:06.144Z,99.90
2017-10-12T22:14:36.280Z,99.90
2017-10-12T22:17:06.813Z,99.90
2017-10-12T22:19:37.304Z,99.90
2017-10-12T22:22:06.848Z,99.90
2017-10-12T22:24:37.355Z,99.90
2017-10-12T22:27:07.105Z,99.90
2017-10-12T22:29:36.852Z,99.90
2017-10-12T22:32:06.408Z,99.90
2017-10-12T22:34:36.971Z,99.90
2017-10-12T22:37:06.707Z,99.90
2017-10-12T22:39:36.259Z,99.90
2017-10-12T22:42:06.060Z,99.90
2017-10-12T22:44:36.814Z,99.90
2017-10-12T22:47:06.558Z,99.90
2017-10-12T22:49:36.108Z,99.90
2017-10-12T22:52:06.646Z,99.90
2017-10-12T22:54:37.309Z,99.90
2017-10-12T22:57:06.853Z,99.90
2017-10-12T22:59:36.613Z,99.90
2017-10-12T23:02:06.345Z,99.90
2017-10-12T23:04:36.107Z,99.90
2017-10-12T23:07:06.616Z,99.90
2017-10-12T23:09:36.392Z,99.90
2017-10-12T23:12:06.111Z,99.90
2017-10-12T23:14:35.864Z,99.90
2017-10-12T23:17:05.401Z,99.90
2017-10-12T23:19:35.959Z,99.90
2017-10-12T23:22:06.076Z,99.90
2017-10-12T23:24:35.607Z,99.90
2017-10-12T23:27:05.380Z,99.90
2017-10-12T23:29:34.965Z,99.90
2017-10-12T23:32:04.776Z,99.90
2017-10-12T23:34:35.280Z,99.90
2017-10-12T23:37:05.057Z,99.90
2017-10-12T23:39:34.784Z,99.90
2017-10-12T23:42:04.342Z,99.90
2017-10-12T23:44:34.709Z,99.90
2017-10-12T23:47:04.447Z,99.90
2017-10-12T23:49:35.046Z,99.90
2017-10-12T23:52:04.784Z,99.90
2017-10-12T23:54:34.150Z,99.90
2017-10-12T23:57:03.953Z,99.90
2017-10-12T23:59:33.694Z,99.90
